Ridgeway, Michigan
Current Conditions -  °F | °C
As of 2:40 PM on Friday 31 Oct 2014 (Local Time) from KADG Reporting Station
Overcast Overcast  
Wind Chill: 36°   Ceiling: 2000
Heat Index: 42°   Visibility: 10mi
Dew Point: 37°   Wind: 12mph
Humidity: 82%   Direction: 360°N
Pressure: 29.89"   Gusts: NA
Location:  41.99°N, 83.86°W
Report Text: KADG 311840Z AUTO 36010KT 10SM SCT014 BKN020 OVC050 06/03 A2989 RMK AO2 RAE34 P0000 T00560028
Loading
Personal Weather Stations






























Interactive Weather Map
Tropical Storm Tracking
New forecast layout! Learn more

10-Day Weather Forecast

Advertisements
Track Severe Weather on mobile